Airfield :
LOGIN :

Register | Disclaimer

   EN    FR    IT 

 










Legend :    VFR   Marginal VFR   IFR   Intensive IFR   Very Intensive IFR
Visi :
Ceiling :
>= 8 km
>= 3000ft
5 to 8 km
1000 to 3000 ft
1500m to 5 km
500 to 1000 ft
800 to 1500m
200 to 500 ft
< 800m
< 200 ft
Symbols :   Thunderstorms  Fog  Heavy snow  Heavy precipitations  Wind > 20 kt
SIGMETs :     Misc.  Thunderstorms  Icing  Turbulence  Mountain Waves  Volcanic Ashes






- Airport Elevation : 357 ft
- IATA code : TUF


LFOT - Tours

CURRENT METAR :
  • 222300Z AUTO 03006KT 360V070 7000 RA ////// 14/13 Q1018

EXPIRED METARs :
  • 222230Z AUTO 04005KT 350V070 6000 RA ////// 14/13 Q1018
  • 222200Z AUTO 02006KT 350V050 6000 RA ////// 14/14 Q1018
  • 222130Z AUTO 04007KT 360V080 7000 RA ////// 15/14 Q1017
  • 222100Z AUTO 04007KT 340V080 6000 RA ////// 15/14 Q1017
  • 222030Z AUTO 36006KT 330V050 5000 RA BR ////// 16/15 Q1016

TAF TAF LFOT
Valid from the 22 at 18:00 until the 23 at 18:00 UTC


221700Z 2218/2318 VRB04KT 9999 SCT012 BKN025
TEMPO 2218/2308 4000 SHRA BKN012 BKN030TCU
PROB40
TEMPO 2218/2224 VRB15G25KT 2000 TSRA BKN008 BKN025CB
BECMG 2220/2222 04010KT
TEMPO 2222/2308 BKN008
PROB30
TEMPO 2303/2308 BKN005
BECMG 2310/2312 BKN020



MET'MAP, your aeronautical weather chart ! - Copyright ORBIFLY December 2007 - Disclaimer

ORBIFLY MET'MAP TEAM :

Programming & Development : Alexandra Zaïnal
Concept & original design : Baudouin d'Aumeries
Assistance for programming : Marc-Olivier Méhu
Technical & hardware support : Manuel Goepfert

Contact : metmap@orbifly.com




SOURCES & CREDITS :

   NOAA